Time,TemperatureF,DewpointF,PressureIn,WindDirection,WindDirectionDegrees,WindSpeedMPH,WindSpeedGustMPH,Humidity,HourlyPrecipIn,Conditions,Clouds,dailyrainin,SoftwareType,DateUTC
2013-02-12 00:00:00,30.7,26.9,0.00,NNW,342,14.5,-999.0,85,0.00,,,-99.99,,2013-02-12 09:00:00,
2013-02-12 00:05:00,31.1,27.1,0.00,NNW,330,20.4,-999.0,85,0.00,,,-99.99,,2013-02-12 09:05:00,
2013-02-12 00:10:00,31.0,26.9,0.00,NNW,341,20.5,-999.0,84,0.00,,,-99.99,,2013-02-12 09:10:00,
2013-02-12 00:15:00,31.2,27.4,0.00,NNW,338,17.8,-999.0,85,0.00,,,-99.99,,2013-02-12 09:15:00,
2013-02-12 00:20:00,31.4,27.9,0.00,NNW,345,18.9,-999.0,86,0.00,,,-99.99,,2013-02-12 09:20:00,
2013-02-12 00:25:00,31.5,27.8,0.00,NNW,336,15.1,-999.0,86,0.00,,,-99.99,,2013-02-12 09:25:00,
2013-02-12 00:30:00,31.3,27.6,0.00,NNW,336,13.7,-999.0,86,0.00,,,-99.99,,2013-02-12 09:30:00,
2013-02-12 00:35:00,30.7,27.3,0.00,NW,320,8.4,-999.0,86,0.00,,,-99.99,,2013-02-12 09:35:00,
2013-02-12 00:40:00,30.2,27.4,0.00,WNW,301,3.5,-999.0,89,0.00,,,-99.99,,2013-02-12 09:40:00,
2013-02-12 00:45:00,30.3,27.7,0.00,East,79,0.4,-999.0,90,0.00,,,-99.99,,2013-02-12 09:45:00,
2013-02-12 00:50:00,30.3,28.0,0.00,NNW,329,5.2,-999.0,91,0.00,,,-99.99,,2013-02-12 09:50:00,
2013-02-12 00:55:00,30.2,28.1,0.00,WNW,295,10.8,-999.0,91,0.00,,,-99.99,,2013-02-12 09:55:00,
2013-02-12 01:00:00,30.0,27.9,0.00,WNW,294,9.1,-999.0,91,0.00,,,-99.99,,2013-02-12 10:00:00,
2013-02-12 01:05:00,30.7,28.6,0.00,NW,323,14.0,-999.0,92,0.00,,,-99.99,,2013-02-12 10:05:00,
2013-02-12 01:10:00,31.0,28.7,0.00,NW,310,18.8,-999.0,91,0.00,,,-99.99,,2013-02-12 10:10:00,
2013-02-12 01:15:00,31.3,28.8,0.00,NNW,330,24.4,-999.0,90,0.00,,,-99.99,,2013-02-12 10:15:00,
2013-02-12 01:20:00,31.1,29.0,0.00,West,273,9.2,-999.0,91,0.00,,,-99.99,,2013-02-12 10:20:00,
2013-02-12 01:25:00,31.1,29.3,0.00,NW,305,9.1,-999.0,93,0.00,,,-99.99,,2013-02-12 10:25:00,
2013-02-12 01:30:00,30.9,29.2,0.00,West,271,3.4,-999.0,93,0.00,,,-99.99,,2013-02-12 10:30:00,
2013-02-12 01:35:00,31.0,29.7,0.00,NW,317,17.8,-999.0,95,0.00,,,-99.99,,2013-02-12 10:35:00,
2013-02-12 01:40:00,30.8,29.5,0.00,NW,323,27.1,-999.0,95,0.00,,,-99.99,,2013-02-12 10:40:00,
2013-02-12 01:45:00,30.9,30.3,0.00,WNW,287,16.5,-999.0,97,0.00,,,-99.99,,2013-02-12 10:45:00,
2013-02-12 01:50:00,30.7,30.3,0.00,NW,316,18.7,-999.0,98,0.00,,,-99.99,,2013-02-12 10:50:00,
2013-02-12 01:56:00,30.6,30.3,0.00,NW,322,21.2,-999.0,98,0.00,,,-99.99,,2013-02-12 10:56:00,
2013-02-12 02:01:00,30.7,30.5,0.00,NW,313,7.6,-999.0,99,0.00,,,-99.99,,2013-02-12 11:01:00,
2013-02-12 02:03:00,30.5,30.3,0.00,WNW,295,13.7,-999.0,99,0.00,,,-99.99,,2013-02-12 11:03:00,
2013-02-12 02:08:00,30.6,30.4,0.00,NW,318,16.3,-999.0,99,0.00,,,-99.99,,2013-02-12 11:08:00,
2013-02-12 02:13:00,30.5,30.4,0.00,NW,320,21.1,-999.0,99,0.00,,,-99.99,,2013-02-12 11:13:00,
2013-02-12 02:18:00,30.7,30.5,0.00,NW,314,6.4,-999.0,99,0.00,,,-99.99,,2013-02-12 11:18:00,
2013-02-12 02:23:00,30.7,30.5,0.00,NW,311,21.9,-999.0,99,0.00,,,-99.99,,2013-02-12 11:23:00,
2013-02-12 02:28:00,30.4,30.3,0.00,NNW,329,23.2,-999.0,99,0.00,,,-99.99,,2013-02-12 11:28:00,
2013-02-12 02:33:00,30.1,30.0,0.00,NW,324,24.1,-999.0,99,0.00,,,-99.99,,2013-02-12 11:33:00,
2013-02-12 02:38:00,30.1,30.0,0.00,NW,316,23.9,-999.0,99,0.00,,,-99.99,,2013-02-12 11:38:00,
2013-02-12 02:43:00,30.5,30.5,0.00,West,281,9.6,-999.0,99,0.00,,,-99.99,,2013-02-12 11:43:00,
2013-02-12 02:48:00,30.5,30.5,0.00,WNW,298,20.1,-999.0,99,0.00,,,-99.99,,2013-02-12 11:48:00,
2013-02-12 02:53:00,30.9,30.7,0.00,West,260,5.0,-999.0,99,0.00,,,-99.99,,2013-02-12 11:53:00,
2013-02-12 02:58:00,30.7,30.6,0.00,South,191,3.5,-999.0,99,0.00,,,-99.99,,2013-02-12 11:58:00,
2013-02-12 03:03:00,30.7,30.6,0.00,WNW,285,3.1,-999.0,99,0.00,,,-99.99,,2013-02-12 12:03:00,
2013-02-12 03:08:00,30.7,30.6,0.00,South,184,5.0,-999.0,99,0.00,,,-99.99,,2013-02-12 12:08:00,
2013-02-12 03:13:00,30.9,30.8,0.00,SE,145,4.0,-999.0,99,0.00,,,-99.99,,2013-02-12 12:13:00,
2013-02-12 03:18:00,31.1,31.0,0.00,NE,42,1.9,-999.0,99,0.00,,,-99.99,,2013-02-12 12:18:00,
2013-02-12 03:23:00,31.1,31.0,0.00,NNE,22,1.7,-999.0,99,0.00,,,-99.99,,2013-02-12 12:23:00,
2013-02-12 03:28:00,30.8,30.7,0.00,NW,317,23.6,-999.0,99,0.00,,,-99.99,,2013-02-12 12:28:00,
2013-02-12 03:33:00,30.1,30.0,0.00,NE,44,5.9,-999.0,99,0.00,,,-99.99,,2013-02-12 12:33:00,
2013-02-12 03:38:00,30.1,30.1,0.00,NNE,17,7.5,-999.0,99,0.00,,,-99.99,,2013-02-12 12:38:00,
2013-02-12 03:43:00,30.1,30.0,0.00,WSW,251,14.0,-999.0,99,0.00,,,-99.99,,2013-02-12 12:43:00,
2013-02-12 03:48:00,29.9,29.8,0.00,West,278,6.3,-999.0,99,0.00,,,-99.99,,2013-02-12 12:48:00,
2013-02-12 03:53:00,30.0,29.9,0.00,WNW,295,3.5,-999.0,99,0.00,,,-99.99,,2013-02-12 12:53:00,
2013-02-12 03:58:00,30.4,30.3,0.00,WNW,290,15.5,-999.0,99,0.00,,,-99.99,,2013-02-12 12:58:00,
2013-02-12 04:03:00,30.3,30.2,0.00,NW,324,22.1,-999.0,99,0.00,,,-99.99,,2013-02-12 13:03:00,
2013-02-12 04:08:00,30.0,29.9,0.00,WNW,301,23.9,-999.0,99,0.00,,,-99.99,,2013-02-12 13:08:00,
2013-02-12 04:13:00,30.1,29.9,0.00,WSW,238,11.7,-999.0,99,0.00,,,-99.99,,2013-02-12 13:13:00,
2013-02-12 04:18:00,30.0,29.9,0.00,SSE,156,1.0,-999.0,99,0.00,,,-99.99,,2013-02-12 13:18:00,
2013-02-12 04:23:00,30.1,30.0,0.00,NNW,331,10.6,-999.0,99,0.00,,,-99.99,,2013-02-12 13:23:00,
2013-02-12 04:28:00,30.1,30.0,0.00,SW,224,2.9,-999.0,99,0.00,,,-99.99,,2013-02-12 13:28:00,
2013-02-12 04:33:00,30.1,30.0,0.00,NW,308,8.2,-999.0,99,0.00,,,-99.99,,2013-02-12 13:33:00,
2013-02-12 04:38:00,30.1,30.0,0.00,WSW,257,11.5,-999.0,99,0.00,,,-99.99,,2013-02-12 13:38:00,
2013-02-12 04:43:00,30.3,30.2,0.00,NW,305,24.9,-999.0,99,0.00,,,-99.99,,2013-02-12 13:43:00,
2013-02-12 04:48:00,30.1,29.9,0.00,NW,324,29.8,-999.0,99,0.00,,,-99.99,,2013-02-12 13:48:00,
2013-02-12 04:53:00,30.1,30.0,0.00,NW,322,27.2,-999.0,99,0.00,,,-99.99,,2013-02-12 13:53:00,
2013-02-12 04:58:00,30.1,30.0,0.00,WNW,302,19.4,-999.0,99,0.00,,,-99.99,,2013-02-12 13:58:00,
2013-02-12 05:03:00,30.1,29.9,0.00,SW,219,1.5,-999.0,99,0.00,,,-99.99,,2013-02-12 14:03:00,
2013-02-12 05:08:00,30.2,30.0,0.00,SSW,193,2.8,-999.0,99,0.00,,,-99.99,,2013-02-12 14:08:00,
2013-02-12 05:13:00,30.1,29.9,0.00,WSW,241,2.0,-999.0,99,0.00,,,-99.99,,2013-02-12 14:13:00,
2013-02-12 05:18:00,30.2,30.1,0.00,South,187,3.2,-999.0,99,0.00,,,-99.99,,2013-02-12 14:18:00,
2013-02-12 05:23:00,30.4,30.3,0.00,ESE,111,3.2,-999.0,99,0.00,,,-99.99,,2013-02-12 14:23:00,
2013-02-12 05:28:00,30.2,30.0,0.00,SSW,207,1.5,-999.0,99,0.00,,,-99.99,,2013-02-12 14:28:00,
2013-02-12 05:33:00,30.3,30.1,0.00,WSW,258,2.3,-999.0,99,0.00,,,-99.99,,2013-02-12 14:33:00,
2013-02-12 05:38:00,30.4,30.2,0.00,NNE,21,4.9,-999.0,99,0.00,,,-99.99,,2013-02-12 14:38:00,
2013-02-12 05:43:00,30.2,30.0,0.00,ESE,122,2.4,-999.0,99,0.00,,,-99.99,,2013-02-12 14:43:00,
2013-02-12 05:48:00,30.4,30.3,0.00,NW,308,2.8,-999.0,99,0.00,,,-99.99,,2013-02-12 14:48:00,
2013-02-12 05:53:00,30.8,30.6,0.00,ESE,104,3.3,-999.0,99,0.00,,,-99.99,,2013-02-12 14:53:00,
2013-02-12 05:58:00,30.6,30.5,0.00,NW,313,2.5,-999.0,99,0.00,,,-99.99,,2013-02-12 14:58:00,
2013-02-12 06:03:00,30.3,30.1,0.00,South,188,2.5,-999.0,99,0.00,,,-99.99,,2013-02-12 15:03:00,
2013-02-12 06:08:00,30.1,30.0,0.00,NNW,347,2.3,-999.0,99,0.00,,,-99.99,,2013-02-12 15:08:00,
2013-02-12 06:13:00,30.2,30.1,0.00,NNW,328,7.8,-999.0,99,0.00,,,-99.99,,2013-02-12 15:13:00,
2013-02-12 06:18:00,30.1,30.0,0.00,NW,308,4.0,-999.0,99,0.00,,,-99.99,,2013-02-12 15:18:00,
2013-02-12 06:23:00,30.1,29.9,0.00,NW,324,17.7,-999.0,99,0.00,,,-99.99,,2013-02-12 15:23:00,
2013-02-12 06:28:00,30.1,30.0,0.00,NW,315,15.6,-999.0,99,0.00,,,-99.99,,2013-02-12 15:28:00,
2013-02-12 06:33:00,30.0,29.8,0.00,WNW,286,5.2,-999.0,99,0.00,,,-99.99,,2013-02-12 15:33:00,
2013-02-12 06:38:00,29.8,29.6,0.00,NW,309,17.1,-999.0,99,0.00,,,-99.99,,2013-02-12 15:38:00,
2013-02-12 06:43:00,30.0,29.8,0.00,NW,307,10.8,-999.0,99,0.00,,,-99.99,,2013-02-12 15:43:00,
2013-02-12 06:48:00,30.0,29.9,0.00,North,11,3.3,-999.0,99,0.00,,,-99.99,,2013-02-12 15:48:00,
2013-02-12 06:53:00,29.8,29.7,0.00,ENE,63,0.3,-999.0,99,0.00,,,-99.99,,2013-02-12 15:53:00,
2013-02-12 06:58:00,30.0,29.8,0.00,ENE,73,0.3,-999.0,99,0.00,,,-99.99,,2013-02-12 15:58:00,
2013-02-12 07:03:00,30.0,29.9,0.00,NE,40,2.2,-999.0,99,0.00,,,-99.99,,2013-02-12 16:03:00,
2013-02-12 07:08:00,30.1,29.9,0.00,NE,55,2.9,-999.0,99,0.00,,,-99.99,,2013-02-12 16:08:00,
2013-02-12 07:13:00,30.2,30.1,0.00,West,263,1.4,-999.0,99,0.00,,,-99.99,,2013-02-12 16:13:00,
2013-02-12 07:18:00,30.1,30.0,0.00,ENE,63,3.0,-999.0,99,0.00,,,-99.99,,2013-02-12 16:18:00,
2013-02-12 07:23:00,30.1,29.9,0.00,NW,323,15.9,-999.0,99,0.00,,,-99.99,,2013-02-12 16:23:00,
2013-02-12 07:28:00,30.1,29.9,0.00,North,0,0.3,-999.0,99,0.00,,,-99.99,,2013-02-12 16:28:00,
2013-02-12 07:33:00,30.1,29.9,0.00,NNW,348,0.9,-999.0,99,0.00,,,-99.99,,2013-02-12 16:33:00,
2013-02-12 07:38:00,29.9,29.8,0.00,SW,222,5.1,-999.0,99,0.00,,,-99.99,,2013-02-12 16:38:00,
2013-02-12 07:43:00,29.9,29.8,0.00,NE,45,0.8,-999.0,99,0.00,,,-99.99,,2013-02-12 16:43:00,
2013-02-12 07:48:00,29.6,29.4,0.00,NE,43,2.0,-999.0,99,0.00,,,-99.99,,2013-02-12 16:48:00,
2013-02-12 07:53:00,29.7,29.5,0.00,NNE,19,4.9,-999.0,99,0.00,,,-99.99,,2013-02-12 16:53:00,
2013-02-12 07:58:00,29.8,29.6,0.00,WNW,294,6.7,-999.0,99,0.00,,,-99.99,,2013-02-12 16:58:00,
2013-02-12 08:03:00,29.9,29.8,0.00,NNE,20,2.4,-999.0,99,0.00,,,-99.99,,2013-02-12 17:03:00,
2013-02-12 08:08:00,29.8,29.7,0.00,West,276,0.6,-999.0,99,0.00,,,-99.99,,2013-02-12 17:08:00,
2013-02-12 08:13:00,29.9,29.7,0.00,WNW,286,0.3,-999.0,99,0.00,,,-99.99,,2013-02-12 17:13:00,
2013-02-12 08:18:00,30.0,29.8,0.00,West,278,5.8,-999.0,99,0.00,,,-99.99,,2013-02-12 17:18:00,
2013-02-12 08:23:00,30.1,29.9,0.00,NW,304,6.8,-999.0,99,0.00,,,-99.99,,2013-02-12 17:23:00,
2013-02-12 08:28:00,30.1,29.9,0.00,WSW,244,10.9,-999.0,99,0.00,,,-99.99,,2013-02-12 17:28:00,
2013-02-12 08:33:00,30.2,30.0,0.00,WSW,246,10.5,-999.0,99,0.00,,,-99.99,,2013-02-12 17:33:00,
2013-02-12 08:38:00,30.3,30.2,0.00,West,261,11.0,-999.0,99,0.00,,,-99.99,,2013-02-12 17:38:00,
2013-02-12 08:43:00,30.4,30.3,0.00,West,263,15.5,-999.0,99,0.00,,,-99.99,,2013-02-12 17:43:00,
2013-02-12 08:48:00,30.4,30.3,0.00,West,263,13.4,-999.0,99,0.00,,,-99.99,,2013-02-12 17:48:00,
2013-02-12 08:54:00,30.5,30.4,0.00,West,262,14.2,-999.0,99,0.00,,,-99.99,,2013-02-12 17:54:00,
2013-02-12 08:59:00,30.6,30.5,0.00,WSW,248,13.9,-999.0,99,0.00,,,-99.99,,2013-02-12 17:59:00,
2013-02-12 09:04:00,30.6,30.5,0.00,WSW,244,14.2,-999.0,99,0.00,,,-99.99,,2013-02-12 18:04:00,
2013-02-12 09:09:00,30.8,30.7,0.00,WSW,252,16.8,-999.0,99,0.00,,,-99.99,,2013-02-12 18:09:00,
2013-02-12 09:14:00,30.9,30.7,0.00,WSW,256,19.4,-999.0,99,0.00,,,-99.99,,2013-02-12 18:14:00,
2013-02-12 09:19:00,30.7,30.6,0.00,WSW,256,13.7,-999.0,99,0.00,,,-99.99,,2013-02-12 18:19:00,
2013-02-12 09:24:00,30.5,30.4,0.00,West,260,15.6,-999.0,99,0.00,,,-99.99,,2013-02-12 18:24:00,
2013-02-12 09:29:00,30.8,30.7,0.00,WSW,248,17.2,-999.0,99,0.00,,,-99.99,,2013-02-12 18:29:00,
2013-02-12 09:34:00,30.7,30.6,0.00,West,260,16.1,-999.0,99,0.00,,,-99.99,,2013-02-12 18:34:00,
2013-02-12 09:39:00,30.9,30.8,0.00,WSW,250,16.3,-999.0,99,0.00,,,-99.99,,2013-02-12 18:39:00,
2013-02-12 09:44:00,31.0,30.9,0.00,WSW,255,15.6,-999.0,99,0.00,,,-99.99,,2013-02-12 18:44:00,
2013-02-12 09:49:00,31.2,31.1,0.00,WSW,256,20.7,-999.0,99,0.00,,,-99.99,,2013-02-12 18:49:00,
2013-02-12 09:54:00,31.5,31.4,0.00,West,267,20.0,-999.0,99,0.00,,,-99.99,,2013-02-12 18:54:00,
2013-02-12 09:59:00,31.8,31.7,0.00,West,264,18.9,-999.0,99,0.00,,,-99.99,,2013-02-12 18:59:00,
2013-02-12 10:04:00,31.8,31.6,0.00,WNW,284,16.8,-999.0,99,0.00,,,-99.99,,2013-02-12 19:04:00,
2013-02-12 10:09:00,31.8,31.7,0.00,NW,314,11.2,-999.0,99,0.00,,,-99.99,,2013-02-12 19:09:00,
2013-02-12 10:14:00,31.8,31.7,0.00,West,276,17.1,-999.0,99,0.00,,,-99.99,,2013-02-12 19:14:00,
2013-02-12 10:19:00,31.7,31.6,0.00,West,280,13.2,-999.0,99,0.00,,,-99.99,,2013-02-12 19:19:00,
2013-02-12 10:24:00,31.5,31.4,0.00,West,270,10.4,-999.0,99,0.00,,,-99.99,,2013-02-12 19:24:00,
2013-02-12 10:29:00,31.5,31.0,0.00,NNW,328,11.8,-999.0,100,0.00,,,-99.99,,2013-02-12 19:29:00,
2013-02-12 10:34:00,31.6,31.0,0.00,South,177,2.8,-999.0,100,0.00,,,-99.99,,2013-02-12 19:34:00,
2013-02-12 10:39:00,31.6,31.0,0.00,WSW,258,6.8,-999.0,100,0.01,,,-99.99,,2013-02-12 19:39:00,
2013-02-12 10:44:00,31.6,31.6,0.00,NNW,338,0.7,-999.0,99,0.01,,,-99.99,,2013-02-12 19:44:00,
2013-02-12 10:49:00,31.9,31.9,0.00,West,264,3.2,-999.0,99,0.02,,,-99.99,,2013-02-12 19:49:00,
2013-02-12 10:54:00,31.9,31.9,0.00,West,280,1.1,-999.0,99,0.02,,,-99.99,,2013-02-12 19:54:00,
2013-02-12 10:59:00,31.9,31.9,0.00,WNW,302,3.2,-999.0,99,0.00,,,-99.99,,2013-02-12 19:59:00,
2013-02-12 11:04:00,32.0,31.9,0.00,ENE,69,0.8,-999.0,99,0.00,,,-99.99,,2013-02-12 20:04:00,
2013-02-12 11:09:00,31.9,31.8,0.00,NNE,30,3.8,-999.0,99,0.00,,,-99.99,,2013-02-12 20:09:00,
2013-02-12 11:14:00,32.1,32.0,0.00,NE,44,1.2,-999.0,99,0.00,,,-99.99,,2013-02-12 20:14:00,
2013-02-12 11:19:00,32.1,31.9,0.00,NNW,339,2.5,-999.0,99,0.00,,,-99.99,,2013-02-12 20:19:00,
2013-02-12 11:24:00,32.1,32.0,0.00,NE,34,1.5,-999.0,99,0.00,,,-99.99,,2013-02-12 20:24:00,
2013-02-12 11:29:00,32.2,32.0,0.00,NW,307,0.6,-999.0,99,0.00,,,-99.99,,2013-02-12 20:29:00,
2013-02-12 11:35:00,32.2,32.0,0.00,NW,321,9.7,-999.0,99,0.00,,,-99.99,,2013-02-12 20:35:00,
2013-02-12 11:40:00,32.2,32.0,0.00,SSE,147,2.3,-999.0,99,0.00,,,-99.99,,2013-02-12 20:40:00,
2013-02-12 11:45:00,32.3,32.1,0.00,ENE,73,0.6,-999.0,99,0.00,,,-99.99,,2013-02-12 20:45:00,
2013-02-12 11:50:00,32.3,32.0,0.00,NW,316,1.1,-999.0,99,0.00,,,-99.99,,2013-02-12 20:50:00,
2013-02-12 11:55:00,32.5,32.2,0.00,NW,306,2.5,-999.0,98,0.00,,,-99.99,,2013-02-12 20:55:00,
2013-02-12 12:00:00,32.7,32.3,0.00,NW,325,1.2,-999.0,98,0.00,,,-99.99,,2013-02-12 21:00:00,
2013-02-12 12:05:00,32.5,32.1,0.00,NNW,339,4.8,-999.0,98,0.00,,,-99.99,,2013-02-12 21:05:00,
2013-02-12 12:10:00,32.3,32.0,0.00,WNW,302,5.1,-999.0,98,0.00,,,-99.99,,2013-02-12 21:10:00,
2013-02-12 12:15:00,32.4,32.1,0.00,NNE,25,0.8,-999.0,99,0.00,,,-99.99,,2013-02-12 21:15:00,
2013-02-12 12:20:00,32.3,32.1,0.00,NW,306,4.9,-999.0,99,0.00,,,-99.99,,2013-02-12 21:20:00,
2013-02-12 12:25:00,32.5,32.3,0.00,North,10,0.0,-999.0,99,0.00,,,-99.99,,2013-02-12 21:25:00,
2013-02-12 12:30:00,32.6,32.3,0.00,West,277,2.7,-999.0,99,0.00,,,-99.99,,2013-02-12 21:30:00,
2013-02-12 12:35:00,32.6,32.3,0.00,West,259,3.1,-999.0,99,0.00,,,-99.99,,2013-02-12 21:35:00,
2013-02-12 12:40:00,33.0,32.7,0.00,SE,136,0.6,-999.0,99,0.00,,,-99.99,,2013-02-12 21:40:00,
2013-02-12 12:45:00,33.6,33.3,0.00,ENE,77,0.4,-999.0,98,0.00,,,-99.99,,2013-02-12 21:45:00,
2013-02-12 12:50:00,33.5,33.1,0.00,ENE,62,0.0,-999.0,98,0.00,,,-99.99,,2013-02-12 21:50:00,
2013-02-12 12:55:00,32.7,32.4,0.00,East,94,4.7,-999.0,98,0.00,,,-99.99,,2013-02-12 21:55:00,
2013-02-12 13:00:00,32.0,31.8,0.00,ENE,59,4.2,-999.0,99,0.00,,,-99.99,,2013-02-12 22:00:00,
2013-02-12 13:05:00,32.1,32.0,0.00,ENE,77,4.9,-999.0,99,0.00,,,-99.99,,2013-02-12 22:05:00,
2013-02-12 13:10:00,32.2,32.0,0.00,ENE,74,4.2,-999.0,99,0.00,,,-99.99,,2013-02-12 22:10:00,
2013-02-12 13:15:00,32.0,31.8,0.00,ENE,74,6.9,-999.0,99,0.00,,,-99.99,,2013-02-12 22:15:00,
2013-02-12 13:20:00,32.1,31.9,0.00,ENE,71,3.6,-999.0,99,0.00,,,-99.99,,2013-02-12 22:20:00,
2013-02-12 13:27:00,32.3,32.0,0.00,East,90,4.5,-999.0,98,0.00,,,-99.99,,2013-02-12 22:27:00,
2013-02-12 13:32:00,32.4,32.0,0.00,East,84,4.9,-999.0,98,0.00,,,-99.99,,2013-02-12 22:32:00,
2013-02-12 13:37:00,32.8,32.2,0.00,East,79,5.5,-999.0,97,0.00,,,-99.99,,2013-02-12 22:37:00,
2013-02-12 13:42:00,32.8,32.0,0.00,ESE,105,3.0,-999.0,97,0.00,,,-99.99,,2013-02-12 22:42:00,
2013-02-12 13:47:00,32.6,31.7,0.00,East,91,3.7,-999.0,96,0.00,,,-99.99,,2013-02-12 22:47:00,
2013-02-12 13:53:00,32.9,32.1,0.00,ENE,76,7.4,-999.0,96,0.00,,,-99.99,,2013-02-12 22:53:00,
2013-02-12 13:58:00,32.8,31.8,0.00,ESE,103,7.4,-999.0,96,0.00,,,-99.99,,2013-02-12 22:58:00,
2013-02-12 14:03:00,32.4,31.5,0.00,East,86,10.8,-999.0,96,0.00,,,-99.99,,2013-02-12 23:03:00,
2013-02-12 14:08:00,32.2,31.4,0.00,East,90,8.1,-999.0,96,0.00,,,-99.99,,2013-02-12 23:08:00,
2013-02-12 14:13:00,32.1,31.2,0.00,ENE,75,14.0,-999.0,96,0.00,,,-99.99,,2013-02-12 23:13:00,
2013-02-12 14:19:00,31.9,31.1,0.00,East,99,12.3,-999.0,96,0.00,,,-99.99,,2013-02-12 23:19:00,
2013-02-12 14:24:00,32.4,31.5,0.00,East,86,9.8,-999.0,96,0.00,,,-99.99,,2013-02-12 23:24:00,
2013-02-12 14:29:00,32.2,31.2,0.00,East,94,10.7,-999.0,96,0.00,,,-99.99,,2013-02-12 23:29:00,
2013-02-12 14:34:00,32.0,31.0,0.00,ENE,61,11.8,-999.0,96,0.00,,,-99.99,,2013-02-12 23:34:00,
2013-02-12 14:39:00,32.1,31.1,0.00,East,85,9.6,-999.0,96,0.00,,,-99.99,,2013-02-12 23:39:00,
2013-02-12 14:45:00,31.8,31.0,0.00,ENE,72,10.8,-999.0,96,0.00,,,-99.99,,2013-02-12 23:45:00,
2013-02-12 14:50:00,31.6,30.7,0.00,ENE,72,15.0,-999.0,96,0.00,,,-99.99,,2013-02-12 23:50:00,
2013-02-12 14:55:00,31.5,30.2,0.00,East,80,15.1,-999.0,94,0.00,,,-99.99,,2013-02-12 23:55:00,
2013-02-12 15:00:00,31.5,29.9,0.00,East,88,12.5,-999.0,93,0.00,,,-99.99,,2013-02-13 00:00:00,
2013-02-12 15:05:00,31.4,29.6,0.00,ENE,67,14.9,-999.0,92,0.00,,,-99.99,,2013-02-13 00:05:00,
2013-02-12 15:11:00,31.3,29.3,0.00,ENE,74,16.0,-999.0,92,0.00,,,-99.99,,2013-02-13 00:11:00,
2013-02-12 15:16:00,31.3,29.1,0.00,NE,50,14.4,-999.0,91,0.00,,,-99.99,,2013-02-13 00:16:00,
2013-02-12 15:21:00,31.3,29.1,0.00,NE,52,16.3,-999.0,91,0.00,,,-99.99,,2013-02-13 00:21:00,
2013-02-12 15:26:00,31.3,28.9,0.00,NE,53,16.6,-999.0,90,0.00,,,-99.99,,2013-02-13 00:26:00,
2013-02-12 15:31:00,31.0,29.1,0.00,ENE,58,14.5,-999.0,92,0.00,,,-99.99,,2013-02-13 00:31:00,
2013-02-12 15:37:00,31.1,29.0,0.00,NE,46,12.7,-999.0,92,0.00,,,-99.99,,2013-02-13 00:37:00,
2013-02-12 15:42:00,31.1,29.0,0.00,ENE,58,13.5,-999.0,91,0.00,,,-99.99,,2013-02-13 00:42:00,
2013-02-12 15:47:00,31.3,28.7,0.00,NE,38,12.4,-999.0,90,0.00,,,-99.99,,2013-02-13 00:47:00,
2013-02-12 15:52:00,31.5,28.9,0.00,NE,40,12.7,-999.0,90,0.00,,,-99.99,,2013-02-13 00:52:00,
2013-02-12 15:57:00,31.5,28.8,0.00,ENE,72,10.6,-999.0,89,0.00,,,-99.99,,2013-02-13 00:57:00,
2013-02-12 16:03:00,31.3,28.5,0.00,NE,42,12.2,-999.0,89,0.00,,,-99.99,,2013-02-13 01:03:00,
2013-02-12 16:08:00,31.3,28.8,0.00,NE,40,11.2,-999.0,90,0.00,,,-99.99,,2013-02-13 01:08:00,
2013-02-12 16:13:00,31.3,28.8,0.00,ENE,58,12.1,-999.0,90,0.00,,,-99.99,,2013-02-13 01:13:00,
2013-02-12 16:18:00,31.3,29.1,0.00,ENE,69,8.9,-999.0,91,0.00,,,-99.99,,2013-02-13 01:18:00,
2013-02-12 16:23:00,31.3,28.6,0.00,NE,34,10.7,-999.0,89,0.00,,,-99.99,,2013-02-13 01:23:00,
2013-02-12 16:29:00,31.2,29.3,0.00,NE,36,3.6,-999.0,92,0.00,,,-99.99,,2013-02-13 01:29:00,
2013-02-12 16:34:00,31.3,28.6,0.00,ENE,61,16.6,-999.0,89,0.00,,,-99.99,,2013-02-13 01:34:00,
2013-02-12 16:39:00,31.3,28.6,0.00,NE,38,11.2,-999.0,89,0.00,,,-99.99,,2013-02-13 01:39:00,
2013-02-12 16:44:00,31.2,28.6,0.00,East,81,11.8,-999.0,90,0.00,,,-99.99,,2013-02-13 01:44:00,
2013-02-12 16:49:00,31.1,28.6,0.00,ENE,65,12.5,-999.0,90,0.00,,,-99.99,,2013-02-13 01:49:00,
2013-02-12 16:55:00,31.0,28.4,0.00,NE,46,14.7,-999.0,89,0.00,,,-99.99,,2013-02-13 01:55:00,
2013-02-12 17:00:00,31.0,28.2,0.00,ENE,68,14.6,-999.0,89,0.00,,,-99.99,,2013-02-13 02:00:00,
2013-02-12 17:05:00,30.9,28.3,0.00,ENE,77,10.4,-999.0,90,0.00,,,-99.99,,2013-02-13 02:05:00,
2013-02-12 17:10:00,31.1,28.5,0.00,NE,42,10.8,-999.0,89,0.00,,,-99.99,,2013-02-13 02:10:00,
2013-02-12 17:15:00,31.1,28.1,0.00,ENE,57,13.3,-999.0,88,0.00,,,-99.99,,2013-02-13 02:15:00,
2013-02-12 17:21:00,31.2,28.1,0.00,ENE,71,17.8,-999.0,88,0.00,,,-99.99,,2013-02-13 02:21:00,
2013-02-12 17:26:00,31.1,28.4,0.00,NE,56,15.7,-999.0,89,0.00,,,-99.99,,2013-02-13 02:26:00,
2013-02-12 17:31:00,31.0,28.5,0.00,ENE,70,12.1,-999.0,90,0.00,,,-99.99,,2013-02-13 02:31:00,
2013-02-12 17:36:00,30.9,28.4,0.00,ENE,70,20.0,-999.0,90,0.00,,,-99.99,,2013-02-13 02:36:00,
2013-02-12 17:41:00,30.7,28.6,0.00,ENE,68,12.1,-999.0,91,0.00,,,-99.99,,2013-02-13 02:41:00,
2013-02-12 17:47:00,30.6,28.7,0.00,ENE,71,16.6,-999.0,92,0.00,,,-99.99,,2013-02-13 02:47:00,
2013-02-12 17:52:00,30.2,28.6,0.00,ENE,63,18.4,-999.0,93,0.00,,,-99.99,,2013-02-13 02:52:00,
2013-02-12 17:57:00,30.3,28.9,0.00,ENE,74,15.3,-999.0,94,0.00,,,-99.99,,2013-02-13 02:57:00,
2013-02-12 18:02:00,30.1,28.9,0.00,ENE,69,14.9,-999.0,95,0.00,,,-99.99,,2013-02-13 03:02:00,
2013-02-12 18:07:00,30.0,28.9,0.00,ENE,73,14.5,-999.0,95,0.00,,,-99.99,,2013-02-13 03:07:00,
2013-02-12 18:13:00,30.0,28.8,0.00,East,84,14.2,-999.0,95,0.00,,,-99.99,,2013-02-13 03:13:00,
2013-02-12 18:18:00,30.1,28.7,0.00,East,88,14.6,-999.0,94,0.01,,,-99.99,,2013-02-13 03:18:00,
2013-02-12 18:23:00,30.1,28.6,0.00,East,93,10.0,-999.0,94,0.01,,,-99.99,,2013-02-13 03:23:00,
2013-02-12 18:28:00,30.0,28.4,0.00,East,89,14.6,-999.0,93,0.01,,,-99.99,,2013-02-13 03:28:00,
2013-02-12 18:33:00,30.1,28.5,0.00,ENE,70,12.8,-999.0,93,0.01,,,-99.99,,2013-02-13 03:33:00,
2013-02-12 18:39:00,29.9,28.4,0.00,ENE,75,13.4,-999.0,94,0.01,,,-99.99,,2013-02-13 03:39:00,
2013-02-12 18:44:00,30.1,28.6,0.00,ENE,76,15.5,-999.0,93,0.01,,,-99.99,,2013-02-13 03:44:00,
2013-02-12 18:49:00,30.1,28.5,0.00,East,86,15.5,-999.0,93,0.01,,,-99.99,,2013-02-13 03:49:00,
2013-02-12 18:54:00,30.1,28.3,0.00,East,86,12.7,-999.0,92,0.01,,,-99.99,,2013-02-13 03:54:00,
2013-02-12 18:59:00,30.1,28.2,0.00,ENE,68,12.5,-999.0,92,0.00,,,-99.99,,2013-02-13 03:59:00,
2013-02-12 19:05:00,30.4,28.2,0.00,ENE,75,10.8,-999.0,91,0.00,,,-99.99,,2013-02-13 04:05:00,
2013-02-12 19:10:00,30.3,28.3,0.00,ENE,65,11.6,-999.0,92,0.00,,,-99.99,,2013-02-13 04:10:00,
2013-02-12 19:15:00,30.2,28.0,0.00,ENE,59,16.2,-999.0,91,0.00,,,-99.99,,2013-02-13 04:15:00,
2013-02-12 19:20:00,30.0,28.0,0.00,ENE,73,9.8,-999.0,92,0.00,,,-99.99,,2013-02-13 04:20:00,
2013-02-12 19:25:00,29.8,28.0,0.00,ENE,69,10.8,-999.0,92,0.00,,,-99.99,,2013-02-13 04:25:00,
2013-02-12 19:31:00,30.1,27.8,0.00,ENE,74,11.1,-999.0,91,0.00,,,-99.99,,2013-02-13 04:31:00,
2013-02-12 19:36:00,30.0,27.6,0.00,ENE,78,9.4,-999.0,90,0.00,,,-99.99,,2013-02-13 04:36:00,
2013-02-12 19:41:00,30.0,27.5,0.00,ENE,67,9.0,-999.0,90,0.00,,,-99.99,,2013-02-13 04:41:00,
2013-02-12 19:46:00,30.2,27.3,0.00,ENE,75,9.1,-999.0,88,0.00,,,-99.99,,2013-02-13 04:46:00,
2013-02-12 19:51:00,30.3,27.0,0.00,ENE,68,10.4,-999.0,87,0.00,,,-99.99,,2013-02-13 04:51:00,
2013-02-12 19:57:00,30.7,26.7,0.00,ENE,68,12.2,-999.0,84,0.00,,,-99.99,,2013-02-13 04:57:00,
2013-02-12 20:00:00,30.5,26.4,0.00,NE,51,9.7,-999.0,84,0.00,,,-99.99,,2013-02-13 05:00:00,
2013-02-12 20:04:00,30.6,25.5,0.00,ENE,67,10.1,-999.0,81,0.00,,,-99.99,,2013-02-13 05:04:00,
2013-02-12 20:10:00,30.4,25.3,0.00,NE,52,9.4,-999.0,81,0.00,,,-99.99,,2013-02-13 05:10:00,
2013-02-12 20:15:00,30.5,25.4,0.00,NE,49,10.4,-999.0,81,0.00,,,-99.99,,2013-02-13 05:15:00,
2013-02-12 20:16:00,30.5,25.6,0.00,NE,46,7.0,-999.0,81,0.00,,,-99.99,,2013-02-13 05:16:00,
2013-02-12 20:23:00,30.4,25.3,0.00,NNE,30,10.1,-999.0,81,0.00,,,-99.99,,2013-02-13 05:23:00,
2013-02-12 20:28:00,30.7,24.8,0.00,NNE,12,16.7,-999.0,78,0.00,,,-99.99,,2013-02-13 05:28:00,
2013-02-12 20:33:00,30.6,24.8,0.00,North,0,11.8,-999.0,78,0.00,,,-99.99,,2013-02-13 05:33:00,
2013-02-12 20:38:00,30.7,25.5,0.00,NNW,337,8.7,-999.0,81,0.00,,,-99.99,,2013-02-13 05:38:00,
2013-02-12 20:43:00,30.1,26.4,0.00,NNW,336,7.1,-999.0,86,0.00,,,-99.99,,2013-02-13 05:43:00,
2013-02-12 20:49:00,30.1,26.6,0.00,North,0,6.4,-999.0,86,0.00,,,-99.99,,2013-02-13 05:49:00,
2013-02-12 20:54:00,30.2,27.5,0.00,NNW,345,5.0,-999.0,89,0.00,,,-99.99,,2013-02-13 05:54:00,
2013-02-12 20:59:00,30.4,27.4,0.00,North,354,4.2,-999.0,88,0.00,,,-99.99,,2013-02-13 05:59:00,
2013-02-12 21:04:00,30.3,26.7,0.00,North,0,2.9,-999.0,86,0.00,,,-99.99,,2013-02-13 06:04:00,
2013-02-12 21:09:00,30.2,26.9,0.00,WNW,298,5.7,-999.0,87,0.00,,,-99.99,,2013-02-13 06:09:00,
2013-02-12 21:15:00,29.1,26.8,0.00,NNW,327,0.1,-999.0,90,0.00,,,-99.99,,2013-02-13 06:15:00,
2013-02-12 21:20:00,29.6,27.4,0.00,NNW,328,4.7,-999.0,91,0.00,,,-99.99,,2013-02-13 06:20:00,
2013-02-12 21:25:00,30.1,24.8,0.00,North,353,7.6,-999.0,80,0.00,,,-99.99,,2013-02-13 06:25:00,
2013-02-12 21:30:00,29.9,24.3,0.00,NNW,337,12.5,-999.0,79,0.00,,,-99.99,,2013-02-13 06:30:00,
2013-02-12 21:35:00,29.7,26.1,0.00,NNW,332,9.0,-999.0,86,0.00,,,-99.99,,2013-02-13 06:35:00,
2013-02-12 21:41:00,29.6,24.7,0.00,North,10,8.6,-999.0,81,0.00,,,-99.99,,2013-02-13 06:41:00,
2013-02-12 21:46:00,30.1,23.6,0.00,NNW,343,10.4,-999.0,76,0.00,,,-99.99,,2013-02-13 06:46:00,
2013-02-12 21:51:00,30.4,23.7,0.00,NNW,344,10.6,-999.0,76,0.00,,,-99.99,,2013-02-13 06:51:00,
2013-02-12 21:56:00,29.7,23.9,0.00,NNW,341,9.3,-999.0,78,0.00,,,-99.99,,2013-02-13 06:56:00,
2013-02-12 22:01:00,29.7,23.9,0.00,North,0,9.6,-999.0,78,0.00,,,-99.99,,2013-02-13 07:01:00,
2013-02-12 22:07:00,29.6,24.1,0.00,NNW,341,10.4,-999.0,79,0.00,,,-99.99,,2013-02-13 07:07:00,
2013-02-12 22:12:00,29.8,22.9,0.00,NNW,347,12.9,-999.0,75,0.00,,,-99.99,,2013-02-13 07:12:00,
2013-02-12 22:17:00,29.8,23.8,0.00,NNW,342,9.8,-999.0,78,0.00,,,-99.99,,2013-02-13 07:17:00,
2013-02-12 22:22:00,29.9,23.0,0.00,NNE,15,12.7,-999.0,75,0.00,,,-99.99,,2013-02-13 07:22:00,
2013-02-12 22:27:00,30.2,22.4,0.00,North,3,11.4,-999.0,72,0.00,,,-99.99,,2013-02-13 07:27:00,
2013-02-12 22:33:00,30.3,22.5,0.00,North,0,9.7,-999.0,72,0.00,,,-99.99,,2013-02-13 07:33:00,
2013-02-12 22:38:00,29.9,23.1,0.00,North,354,9.2,-999.0,75,0.00,,,-99.99,,2013-02-13 07:38:00,
2013-02-12 22:43:00,29.9,22.9,0.00,NNW,339,8.9,-999.0,74,0.00,,,-99.99,,2013-02-13 07:43:00,
2013-02-12 22:48:00,30.2,22.5,0.00,North,7,9.5,-999.0,72,0.00,,,-99.99,,2013-02-13 07:48:00,
2013-02-12 22:53:00,30.4,22.6,0.00,North,6,10.2,-999.0,72,0.00,,,-99.99,,2013-02-13 07:53:00,
2013-02-12 22:59:00,30.0,22.1,0.00,NNW,344,10.8,-999.0,72,0.00,,,-99.99,,2013-02-13 07:59:00,
2013-02-12 23:04:00,30.1,22.9,0.00,North,8,13.7,-999.0,74,0.00,,,-99.99,,2013-02-13 08:04:00,
2013-02-12 23:09:00,30.1,22.5,0.00,North,7,11.8,-999.0,73,0.00,,,-99.99,,2013-02-13 08:09:00,
2013-02-12 23:14:00,30.3,23.4,0.00,North,2,13.2,-999.0,75,0.00,,,-99.99,,2013-02-13 08:14:00,
2013-02-12 23:19:00,30.2,23.3,0.00,North,3,12.4,-999.0,75,0.00,,,-99.99,,2013-02-13 08:19:00,
2013-02-12 23:25:00,29.5,23.1,0.00,NNW,343,13.1,-999.0,76,0.00,,,-99.99,,2013-02-13 08:25:00,
2013-02-12 23:30:00,29.5,23.2,0.00,NNW,345,12.6,-999.0,77,0.00,,,-99.99,,2013-02-13 08:30:00,
2013-02-12 23:35:00,29.0,22.8,0.00,NNW,332,13.8,-999.0,77,0.00,,,-99.99,,2013-02-13 08:35:00,
2013-02-12 23:40:00,29.3,23.0,0.00,North,349,14.9,-999.0,77,0.00,,,-99.99,,2013-02-13 08:40:00,
2013-02-12 23:45:00,29.6,23.5,0.00,NNW,346,15.4,-999.0,77,0.00,,,-99.99,,2013-02-13 08:45:00,
2013-02-12 23:51:00,29.7,24.3,0.00,NNW,337,12.2,-999.0,80,0.00,,,-99.99,,2013-02-13 08:51:00,
2013-02-12 23:54:00,29.6,24.3,0.00,NNW,344,11.6,-999.0,80,0.00,,,-99.99,,2013-02-13 08:54:00,
2013-02-12 23:59:00,29.5,24.2,0.00,NNW,345,13.5,-999.0,80,0.00,,,-99.99,,2013-02-13 08:59:00,